createdAt,value
2023-03-31T00:00:29.378Z,3.15
2023-03-31T00:02:31.102Z,2.05
2023-03-31T00:04:33.216Z,1.77
2023-03-31T00:06:38.412Z,1.77
2023-03-31T00:08:40.490Z,2.10
2023-03-31T00:10:46.740Z,2.08
2023-03-31T00:12:48.429Z,2.17
2023-03-31T00:14:50.054Z,1.70
2023-03-31T00:16:51.899Z,1.92
2023-03-31T00:18:53.699Z,2.13
2023-03-31T00:20:58.553Z,1.88
2023-03-31T00:23:01.863Z,1.75
2023-03-31T00:25:03.649Z,2.03
2023-03-31T00:27:06.042Z,1.60
2023-03-31T00:29:09.501Z,1.67
2023-03-31T00:31:11.413Z,2.20
2023-03-31T00:33:13.812Z,1.92
2023-03-31T00:35:16.016Z,2.10
2023-03-31T00:37:17.728Z,1.65
2023-03-31T00:39:19.645Z,1.60
2023-03-31T00:41:21.385Z,2.42
2023-03-31T00:43:32.634Z,2.10
2023-03-31T00:45:34.461Z,1.55
2023-03-31T00:47:36.213Z,1.40
2023-03-31T00:49:49.606Z,2.45
2023-03-31T00:51:54.008Z,1.70
2023-03-31T00:54:05.084Z,1.40
2023-03-31T00:56:10.264Z,1.55
2023-03-31T00:58:14.633Z,1.90
2023-03-31T01:00:16.704Z,1.95
2023-03-31T01:02:20.796Z,1.60
2023-03-31T01:04:22.884Z,1.52
2023-03-31T01:06:25.446Z,2.58
2023-03-31T01:08:27.886Z,1.75
2023-03-31T01:10:30.077Z,2.40
2023-03-31T01:12:33.612Z,2.10
2023-03-31T01:14:35.707Z,1.90
2023-03-31T01:16:39.931Z,1.92
2023-03-31T01:18:46.397Z,1.95
2023-03-31T01:20:53.951Z,2.35
2023-03-31T01:23:11.944Z,1.83
2023-03-31T01:26:01.528Z,1.92
2023-03-31T01:28:18.183Z,2.47
2023-03-31T01:30:37.320Z,2.15
2023-03-31T01:32:57.026Z,1.95
2023-03-31T01:35:37.822Z,1.65
2023-03-31T01:38:18.051Z,1.58
2023-03-31T01:40:22.687Z,2.10
2023-03-31T01:42:40.465Z,2.00
2023-03-31T01:44:55.287Z,1.80
2023-03-31T01:47:18.427Z,1.95
2023-03-31T01:49:48.142Z,2.03
2023-03-31T01:51:56.775Z,1.92
2023-03-31T01:54:27.416Z,2.42
2023-03-31T02:00:00.185Z,1.83
2023-03-31T02:02:07.610Z,2.38
2023-03-31T02:04:15.392Z,2.40
2023-03-31T02:06:22.190Z,1.98
2023-03-31T02:08:29.381Z,1.75
2023-03-31T02:10:32.192Z,2.53
2023-03-31T02:12:34.537Z,2.10
2023-03-31T02:14:39.185Z,1.77
2023-03-31T02:16:47.765Z,2.03
2023-03-31T02:18:50.182Z,2.30
2023-03-31T02:20:52.924Z,2.00
2023-03-31T02:22:56.411Z,1.98
2023-03-31T02:24:58.413Z,2.88
2023-03-31T02:27:15.296Z,2.53
2023-03-31T02:29:17.020Z,1.98
2023-03-31T02:31:55.563Z,2.00
2023-03-31T02:33:57.288Z,1.55
2023-03-31T02:35:59.782Z,2.25
2023-03-31T02:38:02.534Z,2.60
2023-03-31T02:40:10.613Z,1.88
2023-03-31T02:42:12.749Z,2.40
2023-03-31T02:44:14.905Z,2.22
2023-03-31T02:46:16.708Z,2.45
2023-03-31T02:48:21.609Z,1.38
2023-03-31T02:50:24.907Z,1.45
2023-03-31T02:52:52.850Z,1.60
2023-03-31T02:55:12.867Z,1.48
2023-03-31T02:57:19.119Z,1.30
2023-03-31T02:59:48.757Z,1.30
2023-03-31T03:01:50.406Z,1.10
2023-03-31T03:04:25.745Z,1.67
2023-03-31T03:07:02.572Z,1.67
2023-03-31T03:09:08.554Z,1.25
2023-03-31T03:11:21.931Z,1.55
2023-03-31T03:13:27.315Z,2.22
2023-03-31T03:15:44.990Z,2.20
2023-03-31T03:17:47.922Z,1.98
2023-03-31T03:19:59.210Z,1.30
2023-03-31T03:22:00.925Z,2.28
2023-03-31T03:24:02.537Z,1.58
2023-03-31T03:26:04.365Z,1.70
2023-03-31T03:28:07.335Z,1.40
2023-03-31T03:30:11.871Z,1.95
2023-03-31T03:32:13.497Z,1.55
2023-03-31T03:34:15.124Z,1.38
2023-03-31T03:36:16.986Z,1.50
2023-03-31T03:38:18.669Z,1.40
2023-03-31T03:40:20.364Z,1.40
2023-03-31T03:42:21.980Z,1.25
2023-03-31T03:44:23.746Z,1.88
2023-03-31T03:46:25.666Z,1.70
2023-03-31T03:48:27.591Z,2.00
2023-03-31T03:50:29.336Z,1.42
2023-03-31T03:52:31.190Z,1.35
2023-03-31T03:54:32.914Z,1.48
2023-03-31T03:56:34.643Z,1.55
2023-03-31T03:58:36.618Z,1.73
2023-03-31T04:00:38.296Z,2.10
2023-03-31T04:02:40.376Z,2.40
2023-03-31T04:04:42.091Z,1.10
2023-03-31T04:06:43.761Z,1.85
2023-03-31T04:08:45.536Z,2.05
2023-03-31T04:10:49.249Z,2.63
2023-03-31T04:12:51.077Z,2.58
2023-03-31T04:14:53.001Z,2.28
2023-03-31T04:16:56.564Z,2.38
2023-03-31T04:18:59.113Z,2.17
2023-03-31T04:21:06.849Z,1.98
2023-03-31T04:23:09.958Z,2.00
2023-03-31T04:25:16.715Z,1.75
2023-03-31T04:27:18.627Z,2.05
2023-03-31T04:29:22.610Z,2.47
2023-03-31T04:31:27.303Z,2.28
2023-03-31T04:33:29.177Z,2.17
2023-03-31T04:35:51.670Z,1.88
2023-03-31T04:37:59.286Z,1.90
2023-03-31T04:40:10.970Z,2.00
2023-03-31T04:42:13.210Z,1.92
2023-03-31T04:44:14.855Z,1.95
2023-03-31T04:46:17.010Z,2.38
2023-03-31T04:48:18.769Z,2.00
2023-03-31T04:50:20.443Z,1.80
2023-03-31T04:52:22.219Z,1.92
2023-03-31T04:54:23.934Z,2.90
2023-03-31T04:56:26.755Z,2.53
2023-03-31T04:58:28.682Z,2.75
2023-03-31T05:00:30.459Z,2.20
2023-03-31T05:02:32.278Z,2.42
2023-03-31T05:04:34.148Z,2.28
2023-03-31T05:06:35.919Z,1.80
2023-03-31T05:08:37.635Z,3.08
2023-03-31T05:10:39.323Z,3.03
2023-03-31T05:12:41.226Z,2.63
2023-03-31T05:14:42.924Z,2.72
2023-03-31T05:16:48.102Z,2.30
2023-03-31T05:18:53.853Z,2.40
2023-03-31T05:20:59.469Z,2.35
2023-03-31T05:23:02.065Z,2.65
2023-03-31T05:25:11.927Z,4.13
2023-03-31T05:27:16.312Z,2.97
2023-03-31T05:29:19.022Z,2.92
2023-03-31T05:31:27.575Z,2.72
2023-03-31T05:33:30.252Z,3.45
2023-03-31T05:35:32.505Z,2.88
2023-03-31T05:37:34.543Z,4.10
2023-03-31T05:39:36.384Z,3.30
2023-03-31T05:41:38.285Z,2.80
2023-03-31T05:43:40.192Z,4.95
2023-03-31T05:45:42.104Z,4.00
2023-03-31T05:47:44.075Z,3.15
2023-03-31T05:49:46.029Z,3.15
2023-03-31T05:51:53.750Z,3.55
2023-03-31T05:53:55.645Z,3.80
2023-03-31T05:55:59.754Z,3.55
2023-03-31T05:58:01.758Z,3.47
2023-03-31T06:00:06.552Z,3.65
2023-03-31T06:02:09.517Z,4.05
2023-03-31T06:04:11.565Z,3.92
2023-03-31T06:06:13.446Z,3.63
2023-03-31T06:08:15.475Z,3.67
2023-03-31T06:10:17.209Z,4.15
2023-03-31T06:12:19.039Z,3.90
2023-03-31T06:14:20.773Z,4.47
2023-03-31T06:16:22.771Z,3.70
2023-03-31T06:18:25.260Z,3.63
2023-03-31T06:20:28.221Z,3.97
2023-03-31T06:22:30.291Z,3.90
2023-03-31T06:24:32.260Z,3.70
2023-03-31T06:26:34.139Z,3.65
2023-03-31T06:28:36.486Z,3.25
2023-03-31T06:30:38.856Z,4.30
2023-03-31T06:32:40.864Z,3.67
2023-03-31T06:34:42.768Z,3.83
2023-03-31T06:36:44.684Z,4.68
2023-03-31T06:38:51.395Z,5.15
2023-03-31T06:40:53.483Z,4.32
2023-03-31T06:43:03.883Z,3.65
2023-03-31T06:45:06.237Z,3.53
2023-03-31T06:47:08.345Z,3.47
2023-03-31T06:49:14.269Z,4.57
2023-03-31T06:51:25.393Z,3.67
2023-03-31T06:53:28.305Z,5.05
2023-03-31T06:55:30.154Z,3.95
2023-03-31T06:57:34.306Z,4.10
2023-03-31T06:59:36.626Z,4.38
2023-03-31T07:01:39.460Z,3.95
2023-03-31T07:03:47.511Z,4.25
2023-03-31T07:05:51.187Z,3.45
2023-03-31T07:07:57.345Z,3.08
2023-03-31T07:09:59.249Z,5.30
2023-03-31T07:12:01.680Z,4.40
2023-03-31T07:14:20.837Z,4.20
2023-03-31T07:16:23.902Z,4.35
2023-03-31T07:18:34.809Z,3.72
2023-03-31T07:20:38.329Z,3.65
2023-03-31T07:22:49.773Z,4.80
2023-03-31T07:25:10.097Z,3.58
2023-03-31T07:27:11.993Z,4.00
2023-03-31T07:29:14.277Z,4.13
2023-03-31T07:31:22.648Z,3.40
2023-03-31T07:33:33.235Z,4.13
2023-03-31T07:35:38.925Z,4.00
2023-03-31T07:37:43.520Z,3.15
2023-03-31T07:39:45.484Z,3.65
2023-03-31T07:41:56.731Z,3.40
2023-03-31T07:44:01.805Z,2.33
2023-03-31T07:46:08.751Z,2.53
2023-03-31T07:48:12.126Z,2.28
2023-03-31T07:50:22.502Z,1.88
2023-03-31T07:52:25.447Z,2.08
2023-03-31T07:54:33.549Z,3.05
2023-03-31T07:56:35.683Z,2.22
2023-03-31T07:58:46.945Z,2.03
2023-03-31T08:00:49.996Z,1.88
2023-03-31T08:03:00.811Z,2.72
2023-03-31T08:05:03.203Z,2.75
2023-03-31T08:07:13.408Z,3.50
2023-03-31T08:09:15.435Z,2.58
2023-03-31T08:11:18.275Z,3.08
2023-03-31T08:13:20.060Z,3.25
2023-03-31T08:15:21.833Z,3.20
2023-03-31T08:17:23.534Z,4.05
2023-03-31T08:19:25.282Z,4.00
2023-03-31T08:21:28.577Z,3.80
2023-03-31T08:23:30.231Z,3.72
2023-03-31T08:25:32.030Z,3.78
2023-03-31T08:27:38.806Z,3.35
2023-03-31T08:29:40.623Z,4.55
2023-03-31T08:31:42.412Z,3.70
2023-03-31T08:33:44.818Z,3.42
2023-03-31T08:35:46.595Z,3.60
2023-03-31T08:37:48.348Z,2.78
2023-03-31T08:39:54.776Z,3.17
2023-03-31T08:42:13.954Z,3.85
2023-03-31T08:44:43.156Z,3.50
2023-03-31T08:46:45.059Z,3.22
2023-03-31T08:48:57.234Z,2.50
2023-03-31T08:51:04.161Z,2.50
2023-03-31T08:53:09.103Z,2.78
2023-03-31T08:55:23.018Z,2.55
2023-03-31T08:57:27.561Z,1.92
2023-03-31T08:59:35.670Z,2.15
2023-03-31T09:02:07.870Z,2.10
2023-03-31T09:04:28.586Z,2.63
2023-03-31T09:07:12.774Z,2.05
2023-03-31T09:09:28.451Z,2.30
2023-03-31T09:11:40.170Z,1.67
2023-03-31T09:13:51.071Z,2.10
2023-03-31T09:16:04.930Z,2.00
2023-03-31T09:18:37.244Z,3.00
2023-03-31T09:20:41.101Z,2.13
2023-03-31T09:23:12.147Z,1.98
2023-03-31T09:25:16.061Z,1.55
2023-03-31T09:27:18.880Z,1.63
2023-03-31T09:29:43.721Z,2.58
2023-03-31T09:31:46.847Z,1.85
2023-03-31T09:33:51.843Z,1.83
2023-03-31T09:35:53.513Z,1.42
2023-03-31T09:37:55.318Z,2.20
2023-03-31T09:40:00.221Z,2.53
2023-03-31T09:42:01.942Z,2.72
2023-03-31T09:44:03.789Z,2.90
2023-03-31T09:46:13.946Z,2.53
2023-03-31T09:48:19.647Z,1.88
2023-03-31T09:50:25.342Z,2.63
2023-03-31T09:52:31.087Z,2.50
2023-03-31T09:54:38.869Z,2.30
2023-03-31T09:56:43.597Z,2.58
2023-03-31T09:58:49.035Z,2.97
2023-03-31T10:01:02.967Z,2.45
2023-03-31T10:03:08.451Z,2.50
2023-03-31T10:05:27.774Z,2.95
2023-03-31T10:07:29.548Z,2.45
2023-03-31T10:09:33.840Z,2.55
2023-03-31T10:11:35.679Z,2.88
2023-03-31T10:13:46.601Z,3.25
2023-03-31T10:15:53.269Z,2.85
2023-03-31T10:17:58.528Z,4.70
2023-03-31T10:20:07.777Z,3.10
2023-03-31T10:22:22.018Z,3.15
2023-03-31T10:24:23.853Z,2.58
2023-03-31T10:26:29.030Z,2.72
2023-03-31T10:28:34.222Z,3.03
2023-03-31T10:30:38.301Z,3.60
2023-03-31T10:32:54.920Z,2.80
2023-03-31T10:35:06.517Z,2.15
2023-03-31T10:37:17.738Z,2.50
2023-03-31T10:39:20.690Z,2.00
2023-03-31T10:41:28.036Z,1.73
2023-03-31T10:43:36.485Z,1.60
2023-03-31T10:46:00.241Z,1.98
2023-03-31T10:48:02.610Z,1.95
2023-03-31T10:50:05.089Z,2.38
2023-03-31T10:52:27.532Z,1.90
2023-03-31T10:54:47.977Z,2.25
2023-03-31T10:59:15.397Z,2.33
2023-03-31T11:01:54.134Z,2.03
2023-03-31T11:04:25.152Z,2.08
2023-03-31T11:06:54.604Z,1.38
2023-03-31T11:09:09.459Z,2.75
2023-03-31T11:11:41.282Z,1.88
2023-03-31T11:13:45.681Z,1.20
2023-03-31T11:16:23.624Z,1.75
2023-03-31T11:18:54.901Z,1.58
2023-03-31T11:21:15.346Z,2.45
2023-03-31T11:23:54.946Z,1.40
2023-03-31T11:26:11.644Z,2.30
2023-03-31T11:28:42.979Z,2.00
2023-03-31T11:31:14.990Z,1.73
2023-03-31T11:33:22.653Z,1.15
2023-03-31T11:36:06.108Z,1.17
2023-03-31T11:38:07.967Z,1.30
2023-03-31T11:40:19.426Z,1.70
2023-03-31T11:42:28.559Z,1.52
2023-03-31T11:44:40.778Z,1.90
2023-03-31T11:46:49.017Z,1.50
2023-03-31T11:48:58.189Z,1.63
2023-03-31T11:51:03.436Z,1.08
2023-03-31T11:53:15.066Z,1.33
2023-03-31T11:55:21.973Z,1.83
2023-03-31T11:57:48.540Z,0.90
2023-03-31T12:00:09.164Z,0.90
2023-03-31T12:02:18.201Z,1.05
2023-03-31T12:04:37.308Z,1.00
2023-03-31T12:06:42.644Z,1.00
2023-03-31T12:09:22.153Z,1.23
2023-03-31T12:11:39.282Z,1.08
2023-03-31T12:14:02.766Z,0.98
2023-03-31T12:16:06.284Z,0.82
2023-03-31T12:18:23.343Z,1.15
2023-03-31T12:20:38.006Z,1.25
2023-03-31T12:22:43.838Z,1.10
2023-03-31T12:24:47.021Z,1.52
2023-03-31T12:27:07.134Z,1.58
2023-03-31T12:29:32.211Z,0.70
2023-03-31T12:31:36.929Z,1.10
2023-03-31T12:33:41.656Z,1.38
2023-03-31T12:36:02.148Z,1.73
2023-03-31T12:38:16.380Z,0.75
2023-03-31T12:40:35.965Z,1.35
2023-03-31T12:43:11.706Z,1.08
2023-03-31T12:45:27.049Z,1.35
2023-03-31T12:47:54.749Z,1.10
2023-03-31T12:50:02.552Z,1.20
2023-03-31T12:52:13.418Z,1.33
2023-03-31T12:54:53.244Z,1.20
2023-03-31T12:57:01.703Z,1.33
2023-03-31T12:59:19.408Z,1.38
2023-03-31T13:01:22.211Z,1.50
2023-03-31T13:03:45.294Z,1.30
2023-03-31T13:05:47.721Z,1.42
2023-03-31T13:07:49.480Z,1.17
2023-03-31T13:10:16.880Z,2.30
2023-03-31T13:12:23.649Z,1.30
2023-03-31T13:14:30.457Z,1.67
2023-03-31T13:16:34.836Z,1.35
2023-03-31T13:18:36.857Z,2.15
2023-03-31T13:20:40.542Z,1.77
2023-03-31T13:22:46.143Z,1.33
2023-03-31T13:24:47.913Z,1.60
2023-03-31T13:26:51.155Z,2.67
2023-03-31T13:29:26.454Z,2.05
2023-03-31T13:32:00.036Z,1.85
2023-03-31T13:34:02.592Z,2.03
2023-03-31T13:36:04.289Z,2.15
2023-03-31T13:38:35.207Z,1.45
2023-03-31T13:40:55.218Z,1.73
2023-03-31T13:43:24.349Z,1.67
2023-03-31T13:45:47.873Z,2.35
2023-03-31T13:48:10.558Z,1.85
2023-03-31T13:50:49.868Z,1.10
2023-03-31T13:53:22.651Z,1.60
2023-03-31T13:55:45.052Z,1.10
2023-03-31T13:58:24.804Z,1.52
2023-03-31T14:00:37.890Z,1.50
2023-03-31T14:03:07.753Z,1.60
2023-03-31T14:05:21.834Z,1.58
2023-03-31T14:07:42.865Z,2.28
2023-03-31T14:09:49.962Z,1.48
2023-03-31T14:11:52.099Z,1.58
2023-03-31T14:14:20.080Z,1.92
2023-03-31T14:16:21.915Z,1.83
2023-03-31T14:18:33.928Z,1.80
2023-03-31T14:21:04.420Z,2.40
2023-03-31T14:23:21.421Z,1.52
2023-03-31T14:25:37.895Z,1.40
2023-03-31T14:28:05.290Z,1.45
2023-03-31T14:30:27.268Z,2.08
2023-03-31T14:32:38.597Z,2.45
2023-03-31T14:35:13.957Z,1.23
2023-03-31T14:37:17.972Z,1.48
2023-03-31T14:39:24.221Z,1.92
2023-03-31T14:41:29.967Z,1.52
2023-03-31T14:43:34.057Z,1.30
2023-03-31T14:45:36.186Z,1.50
2023-03-31T14:47:37.940Z,1.55
2023-03-31T14:49:39.770Z,1.45
2023-03-31T14:51:44.552Z,2.25
2023-03-31T14:53:46.200Z,1.13
2023-03-31T14:55:58.072Z,1.83
2023-03-31T14:58:03.812Z,1.23
2023-03-31T15:00:08.408Z,1.63
2023-03-31T15:02:16.789Z,1.52
2023-03-31T15:04:28.805Z,1.48
2023-03-31T15:06:40.016Z,1.35
2023-03-31T15:08:42.336Z,2.05
2023-03-31T15:10:46.183Z,1.38
2023-03-31T15:12:49.068Z,1.80
2023-03-31T15:14:58.185Z,1.60
2023-03-31T15:17:00.465Z,1.45
2023-03-31T15:19:08.042Z,1.80
2023-03-31T15:21:20.452Z,2.20
2023-03-31T15:23:26.012Z,1.20
2023-03-31T15:25:33.881Z,1.30
2023-03-31T15:27:38.234Z,1.40
2023-03-31T15:29:48.082Z,1.50
2023-03-31T15:31:50.030Z,1.38
2023-03-31T15:33:52.034Z,1.73
2023-03-31T15:35:53.797Z,1.48
2023-03-31T15:37:58.424Z,1.55
2023-03-31T15:40:01.617Z,1.45
2023-03-31T15:42:07.558Z,2.58
2023-03-31T15:44:34.082Z,1.33
2023-03-31T15:46:38.590Z,1.58
2023-03-31T15:48:58.106Z,1.88
2023-03-31T15:51:21.236Z,2.10
2023-03-31T15:53:31.990Z,1.55
2023-03-31T15:57:44.615Z,1.38
2023-03-31T15:59:55.976Z,1.13
2023-03-31T16:02:00.220Z,2.55
2023-03-31T16:04:05.739Z,1.95
2023-03-31T16:06:28.946Z,1.70
2023-03-31T16:08:58.373Z,1.67
2023-03-31T16:11:07.570Z,2.30
2023-03-31T16:13:12.661Z,2.33
2023-03-31T16:15:16.739Z,1.80
2023-03-31T16:17:28.897Z,2.47
2023-03-31T16:19:39.399Z,1.98
2023-03-31T16:21:44.579Z,1.35
2023-03-31T16:23:53.148Z,2.30
2023-03-31T16:25:55.675Z,1.70
2023-03-31T16:27:59.144Z,1.45
2023-03-31T16:30:13.472Z,1.65
2023-03-31T16:32:18.550Z,1.75
2023-03-31T16:34:20.516Z,1.65
2023-03-31T16:36:22.280Z,5.72
2023-03-31T16:38:25.679Z,1.83
2023-03-31T16:40:28.771Z,4.07
2023-03-31T16:42:30.459Z,1.50
2023-03-31T16:44:32.148Z,1.30
2023-03-31T16:46:34.108Z,1.40
2023-03-31T16:48:36.152Z,1.35
2023-03-31T16:50:38.021Z,1.42
2023-03-31T16:52:39.734Z,1.42
2023-03-31T16:54:41.598Z,1.10
2023-03-31T16:56:43.305Z,1.45
2023-03-31T16:58:45.358Z,1.13
2023-03-31T17:00:47.857Z,1.20
2023-03-31T17:02:49.960Z,0.90
2023-03-31T17:04:54.273Z,1.00
2023-03-31T17:06:58.291Z,1.10
2023-03-31T17:09:00.707Z,1.73
2023-03-31T17:11:05.433Z,1.30
2023-03-31T17:13:08.099Z,1.25
2023-03-31T17:15:10.514Z,0.93
2023-03-31T17:17:12.245Z,0.90
2023-03-31T17:19:13.970Z,1.00
2023-03-31T17:21:19.383Z,1.08
2023-03-31T17:23:22.325Z,1.33
2023-03-31T17:25:29.783Z,1.15
2023-03-31T17:27:32.291Z,1.23
2023-03-31T17:29:33.985Z,0.90
2023-03-31T17:31:35.903Z,1.95
2023-03-31T17:33:37.716Z,1.45
2023-03-31T17:35:39.445Z,1.50
2023-03-31T17:37:41.417Z,1.20
2023-03-31T17:39:46.301Z,1.30
2023-03-31T17:41:48.088Z,1.23
2023-03-31T17:43:50.413Z,1.30
2023-03-31T17:45:52.189Z,1.50
2023-03-31T17:47:55.084Z,1.30
2023-03-31T17:49:56.781Z,1.60
2023-03-31T17:51:59.462Z,1.20
2023-03-31T17:54:01.494Z,1.00
2023-03-31T17:56:04.473Z,1.23
2023-03-31T17:58:08.663Z,1.23
2023-03-31T18:00:11.025Z,1.73
2023-03-31T18:02:16.282Z,1.10
2023-03-31T18:04:18.262Z,1.27
2023-03-31T18:06:20.340Z,1.75
2023-03-31T18:08:22.066Z,1.05
2023-03-31T18:10:23.805Z,1.25
2023-03-31T18:12:25.658Z,2.42
2023-03-31T18:14:27.795Z,1.40
2023-03-31T18:16:30.918Z,1.15
2023-03-31T18:18:32.743Z,1.40
2023-03-31T18:20:34.718Z,1.08
2023-03-31T18:22:37.120Z,1.50
2023-03-31T18:24:40.198Z,2.22
2023-03-31T18:26:42.642Z,1.20
2023-03-31T18:28:44.305Z,2.80
2023-03-31T18:30:47.333Z,2.28
2023-03-31T18:32:49.184Z,1.10
2023-03-31T18:34:50.958Z,2.35
2023-03-31T18:36:53.074Z,1.42
2023-03-31T18:38:55.491Z,1.38
2023-03-31T18:40:57.763Z,1.73
2023-03-31T18:42:59.907Z,1.38
2023-03-31T18:45:01.585Z,1.00
2023-03-31T18:47:03.448Z,1.23
2023-03-31T18:49:05.880Z,1.77
2023-03-31T18:51:08.282Z,1.42
2023-03-31T18:53:09.957Z,1.05
2023-03-31T18:55:11.678Z,1.35
2023-03-31T18:57:13.477Z,1.30
2023-03-31T18:59:15.212Z,1.13
2023-03-31T19:01:16.969Z,1.25
2023-03-31T19:03:19.215Z,1.00
2023-03-31T19:05:21.555Z,0.88
2023-03-31T19:07:23.247Z,1.30
2023-03-31T19:09:27.357Z,1.08
2023-03-31T19:11:29.177Z,1.83
2023-03-31T19:13:30.822Z,1.42
2023-03-31T19:15:33.305Z,1.60
2023-03-31T19:17:35.112Z,1.38
2023-03-31T19:19:36.837Z,1.10
2023-03-31T19:21:39.390Z,1.30
2023-03-31T19:23:41.087Z,1.30
2023-03-31T19:25:42.944Z,1.40
2023-03-31T19:27:46.202Z,1.15
2023-03-31T19:29:48.097Z,1.95
2023-03-31T19:31:50.075Z,1.40
2023-03-31T19:33:52.136Z,1.10
2023-03-31T19:35:53.962Z,1.23
2023-03-31T19:37:57.629Z,1.35
2023-03-31T19:39:59.361Z,1.38
2023-03-31T19:42:02.257Z,1.45
2023-03-31T19:44:03.914Z,2.03
2023-03-31T19:46:06.003Z,1.40
2023-03-31T19:48:08.189Z,0.85
2023-03-31T19:50:11.340Z,1.00
2023-03-31T19:52:13.160Z,1.23
2023-03-31T19:54:14.824Z,1.52
2023-03-31T19:56:17.727Z,1.38
2023-03-31T19:58:19.369Z,1.55
2023-03-31T20:00:21.406Z,1.50
2023-03-31T20:02:23.752Z,1.45
2023-03-31T20:04:25.858Z,1.58
2023-03-31T20:06:29.513Z,2.00
2023-03-31T20:08:31.495Z,2.17
2023-03-31T20:10:33.270Z,2.85
2023-03-31T20:12:34.994Z,3.47
2023-03-31T20:14:36.789Z,2.55
2023-03-31T20:16:38.493Z,3.33
2023-03-31T20:18:40.800Z,3.10
2023-03-31T20:20:43.165Z,2.75
2023-03-31T20:22:44.922Z,3.90
2023-03-31T20:24:46.579Z,2.15
2023-03-31T20:26:48.482Z,3.03
2023-03-31T20:28:54.978Z,3.25
2023-03-31T20:30:56.645Z,3.20
2023-03-31T20:32:58.360Z,3.53
2023-03-31T20:35:00.524Z,2.15
2023-03-31T20:37:02.491Z,2.25
2023-03-31T20:39:05.755Z,2.42
2023-03-31T20:41:08.205Z,3.47
2023-03-31T20:43:09.925Z,1.83
2023-03-31T20:45:11.593Z,2.47
2023-03-31T20:47:14.417Z,2.00
2023-03-31T20:49:16.059Z,1.75
2023-03-31T20:51:20.231Z,1.30
2023-03-31T20:53:22.300Z,2.67
2023-03-31T20:55:23.962Z,1.98
2023-03-31T20:57:26.723Z,1.55
2023-03-31T20:59:28.402Z,1.70
2023-03-31T21:01:32.960Z,2.42
2023-03-31T21:03:34.956Z,1.63
2023-03-31T21:05:46.626Z,1.45
2023-03-31T21:07:48.329Z,1.20
2023-03-31T21:09:50.081Z,1.65
2023-03-31T21:11:52.025Z,1.55
2023-03-31T21:13:53.966Z,1.33
2023-03-31T21:15:56.097Z,1.58
2023-03-31T21:17:57.938Z,1.48
2023-03-31T21:19:59.630Z,2.03
2023-03-31T21:22:01.315Z,1.35
2023-03-31T21:24:03.064Z,1.40
2023-03-31T21:26:06.355Z,1.70
2023-03-31T21:28:08.059Z,1.30
2023-03-31T21:30:10.427Z,1.50
2023-03-31T21:32:12.267Z,0.98
2023-03-31T21:34:13.997Z,1.60
2023-03-31T21:36:18.908Z,2.00
2023-03-31T21:38:21.298Z,1.17
2023-03-31T21:40:22.948Z,1.85
2023-03-31T21:42:24.808Z,1.15
2023-03-31T21:44:26.826Z,1.40
2023-03-31T21:46:30.345Z,1.40
2023-03-31T21:48:34.146Z,1.70
2023-03-31T21:50:37.096Z,1.00
2023-03-31T21:52:38.765Z,1.40
2023-03-31T21:54:40.453Z,1.40
2023-03-31T21:56:42.194Z,1.70
2023-03-31T21:58:46.672Z,1.02
2023-03-31T22:00:48.477Z,1.40
2023-03-31T22:02:50.442Z,1.35
2023-03-31T22:04:52.469Z,1.48
2023-03-31T22:06:54.414Z,1.02
2023-03-31T22:08:56.263Z,1.80
2023-03-31T22:11:00.050Z,2.55
2023-03-31T22:13:01.800Z,1.95
2023-03-31T22:15:03.949Z,1.35
2023-03-31T22:17:05.639Z,1.88
2023-03-31T22:19:09.690Z,2.13
2023-03-31T22:21:17.245Z,2.03
2023-03-31T22:23:20.916Z,2.70
2023-03-31T22:25:22.625Z,1.65
2023-03-31T22:27:24.285Z,1.88
2023-03-31T22:29:26.054Z,2.97
2023-03-31T22:31:28.598Z,2.30
2023-03-31T22:33:30.473Z,2.38
2023-03-31T22:35:32.319Z,1.55
2023-03-31T22:37:34.250Z,1.95
2023-03-31T22:39:36.291Z,3.10
2023-03-31T22:41:38.187Z,2.47
2023-03-31T22:43:40.000Z,3.30
2023-03-31T22:45:41.680Z,1.83
2023-03-31T22:47:43.499Z,1.52
2023-03-31T22:49:45.242Z,3.10
2023-03-31T22:51:47.717Z,3.03
2023-03-31T22:53:51.633Z,4.32
2023-03-31T22:55:53.808Z,2.47
2023-03-31T22:57:57.458Z,1.98
2023-03-31T22:59:59.545Z,3.42
2023-03-31T23:02:01.312Z,2.58
2023-03-31T23:04:03.388Z,1.90
2023-03-31T23:06:05.807Z,1.27
2023-03-31T23:08:07.509Z,1.40
2023-03-31T23:10:09.600Z,1.50
2023-03-31T23:12:11.263Z,1.80
2023-03-31T23:14:13.320Z,1.40
2023-03-31T23:16:25.807Z,1.77
2023-03-31T23:18:29.940Z,1.45
2023-03-31T23:20:31.813Z,1.50
2023-03-31T23:22:34.396Z,1.27
2023-03-31T23:24:36.264Z,0.90
2023-03-31T23:26:38.120Z,1.10
2023-03-31T23:28:39.953Z,1.33
2023-03-31T23:30:41.709Z,1.02
2023-03-31T23:32:43.469Z,1.10
2023-03-31T23:34:45.161Z,1.50
2023-03-31T23:36:46.957Z,1.00
2023-03-31T23:38:50.662Z,1.25
2023-03-31T23:40:52.358Z,1.10
2023-03-31T23:42:54.281Z,1.30
2023-03-31T23:44:55.953Z,1.63
2023-03-31T23:47:00.807Z,0.95
2023-03-31T23:49:03.127Z,1.35
2023-03-31T23:51:07.204Z,1.70
2023-03-31T23:53:08.891Z,1.27
2023-03-31T23:55:10.751Z,1.02
2023-03-31T23:57:12.609Z,1.30
2023-03-31T23:59:14.466Z,1.70
